sensor_id;sensor_type;location;lat;lon;timestamp;P1;durP1;ratioP1;P2;durP2;ratioP2
58242;SDS011;50118;53.232;8.252;2024-03-22T00:00:38;28.23;;;16.98;;
58242;SDS011;50118;53.232;8.252;2024-03-22T00:03:04;27.75;;;16.63;;
58242;SDS011;50118;53.232;8.252;2024-03-22T00:05:30;25.35;;;16.05;;
58242;SDS011;50118;53.232;8.252;2024-03-22T00:07:55;26.90;;;16.75;;
58242;SDS011;50118;53.232;8.252;2024-03-22T00:10:20;27.92;;;17.35;;
58242;SDS011;50118;53.232;8.252;2024-03-22T00:12:46;31.00;;;18.55;;
58242;SDS011;50118;53.232;8.252;2024-03-22T00:15:11;30.10;;;17.70;;
58242;SDS011;50118;53.232;8.252;2024-03-22T00:17:37;29.73;;;18.42;;
58242;SDS011;50118;53.232;8.252;2024-03-22T00:20:02;29.55;;;17.95;;
58242;SDS011;50118;53.232;8.252;2024-03-22T00:22:28;28.25;;;19.23;;
58242;SDS011;50118;53.232;8.252;2024-03-22T00:24:53;31.20;;;18.63;;
58242;SDS011;50118;53.232;8.252;2024-03-22T00:27:19;28.83;;;18.73;;
58242;SDS011;50118;53.232;8.252;2024-03-22T00:29:44;31.15;;;19.15;;
58242;SDS011;50118;53.232;8.252;2024-03-22T00:32:10;33.13;;;20.40;;
58242;SDS011;50118;53.232;8.252;2024-03-22T00:34:35;30.40;;;20.23;;
58242;SDS011;50118;53.232;8.252;2024-03-22T00:37:01;31.33;;;19.88;;
58242;SDS011;50118;53.232;8.252;2024-03-22T00:39:26;30.38;;;20.00;;
58242;SDS011;50118;53.232;8.252;2024-03-22T00:41:51;36.80;;;21.65;;
58242;SDS011;50118;53.232;8.252;2024-03-22T00:44:17;35.00;;;21.55;;
58242;SDS011;50118;53.232;8.252;2024-03-22T00:46:42;33.53;;;21.33;;
58242;SDS011;50118;53.232;8.252;2024-03-22T00:49:08;36.17;;;21.83;;
58242;SDS011;50118;53.232;8.252;2024-03-22T00:51:33;34.28;;;22.63;;
58242;SDS011;50118;53.232;8.252;2024-03-22T00:53:59;34.28;;;21.98;;
58242;SDS011;50118;53.232;8.252;2024-03-22T00:56:24;36.55;;;22.63;;
58242;SDS011;50118;53.232;8.252;2024-03-22T00:58:49;34.05;;;22.08;;
58242;SDS011;50118;53.232;8.252;2024-03-22T01:01:15;35.97;;;22.48;;
58242;SDS011;50118;53.232;8.252;2024-03-22T01:03:40;37.70;;;23.35;;
58242;SDS011;50118;53.232;8.252;2024-03-22T01:06:06;36.95;;;23.13;;
58242;SDS011;50118;53.232;8.252;2024-03-22T01:08:32;38.03;;;24.02;;
58242;SDS011;50118;53.232;8.252;2024-03-22T01:10:58;37.72;;;24.15;;
58242;SDS011;50118;53.232;8.252;2024-03-22T01:13:23;35.88;;;23.83;;
58242;SDS011;50118;53.232;8.252;2024-03-22T01:15:48;37.13;;;23.65;;
58242;SDS011;50118;53.232;8.252;2024-03-22T01:18:14;38.92;;;25.00;;
58242;SDS011;50118;53.232;8.252;2024-03-22T01:20:40;41.03;;;25.55;;
58242;SDS011;50118;53.232;8.252;2024-03-22T01:23:07;42.50;;;25.23;;
58242;SDS011;50118;53.232;8.252;2024-03-22T01:25:32;39.20;;;25.13;;
58242;SDS011;50118;53.232;8.252;2024-03-22T01:27:58;41.80;;;25.30;;
58242;SDS011;50118;53.232;8.252;2024-03-22T01:30:23;40.13;;;25.42;;
58242;SDS011;50118;53.232;8.252;2024-03-22T01:32:50;39.72;;;25.63;;
58242;SDS011;50118;53.232;8.252;2024-03-22T01:35:16;42.17;;;26.30;;
58242;SDS011;50118;53.232;8.252;2024-03-22T01:37:41;40.45;;;25.50;;
58242;SDS011;50118;53.232;8.252;2024-03-22T01:40:07;42.97;;;26.98;;
58242;SDS011;50118;53.232;8.252;2024-03-22T01:42:33;44.42;;;27.67;;
58242;SDS011;50118;53.232;8.252;2024-03-22T01:44:58;44.97;;;27.42;;
58242;SDS011;50118;53.232;8.252;2024-03-22T01:47:24;44.53;;;27.42;;
58242;SDS011;50118;53.232;8.252;2024-03-22T01:49:50;42.33;;;26.02;;
58242;SDS011;50118;53.232;8.252;2024-03-22T01:52:18;44.17;;;28.23;;
58242;SDS011;50118;53.232;8.252;2024-03-22T01:54:44;47.05;;;27.73;;
58242;SDS011;50118;53.232;8.252;2024-03-22T01:57:09;47.90;;;28.25;;
58242;SDS011;50118;53.232;8.252;2024-03-22T01:59:35;49.10;;;29.45;;
58242;SDS011;50118;53.232;8.252;2024-03-22T02:02:00;50.45;;;30.10;;
58242;SDS011;50118;53.232;8.252;2024-03-22T02:04:28;49.47;;;30.00;;
58242;SDS011;50118;53.232;8.252;2024-03-22T02:06:53;49.30;;;29.45;;
58242;SDS011;50118;53.232;8.252;2024-03-22T02:09:19;48.25;;;29.38;;
58242;SDS011;50118;53.232;8.252;2024-03-22T02:11:46;50.40;;;30.35;;
58242;SDS011;50118;53.232;8.252;2024-03-22T02:14:12;49.65;;;30.83;;
58242;SDS011;50118;53.232;8.252;2024-03-22T02:16:39;50.25;;;30.77;;
58242;SDS011;50118;53.232;8.252;2024-03-22T02:19:05;55.78;;;31.63;;
58242;SDS011;50118;53.232;8.252;2024-03-22T02:21:31;56.92;;;31.75;;
58242;SDS011;50118;53.232;8.252;2024-03-22T02:23:56;51.10;;;29.85;;
58242;SDS011;50118;53.232;8.252;2024-03-22T02:26:22;53.75;;;31.13;;
58242;SDS011;50118;53.232;8.252;2024-03-22T02:28:47;53.95;;;31.17;;
58242;SDS011;50118;53.232;8.252;2024-03-22T02:31:13;57.50;;;33.80;;
58242;SDS011;50118;53.232;8.252;2024-03-22T02:33:38;54.67;;;32.13;;
58242;SDS011;50118;53.232;8.252;2024-03-22T02:36:04;56.10;;;32.40;;
58242;SDS011;50118;53.232;8.252;2024-03-22T02:38:30;54.80;;;32.13;;
58242;SDS011;50118;53.232;8.252;2024-03-22T02:40:57;53.85;;;32.15;;
58242;SDS011;50118;53.232;8.252;2024-03-22T02:43:23;53.88;;;32.28;;
58242;SDS011;50118;53.232;8.252;2024-03-22T02:45:49;57.17;;;33.85;;
58242;SDS011;50118;53.232;8.252;2024-03-22T02:48:14;56.13;;;31.80;;
58242;SDS011;50118;53.232;8.252;2024-03-22T02:50:40;56.58;;;33.85;;
58242;SDS011;50118;53.232;8.252;2024-03-22T02:53:06;55.55;;;33.58;;
58242;SDS011;50118;53.232;8.252;2024-03-22T02:55:38;60.70;;;34.85;;
58242;SDS011;50118;53.232;8.252;2024-03-22T02:58:05;57.13;;;33.50;;
58242;SDS011;50118;53.232;8.252;2024-03-22T03:00:35;54.85;;;32.33;;
58242;SDS011;50118;53.232;8.252;2024-03-22T03:03:01;57.13;;;33.95;;
58242;SDS011;50118;53.232;8.252;2024-03-22T03:05:26;58.03;;;33.92;;
58242;SDS011;50118;53.232;8.252;2024-03-22T03:07:52;56.80;;;33.92;;
58242;SDS011;50118;53.232;8.252;2024-03-22T03:10:17;56.08;;;34.13;;
58242;SDS011;50118;53.232;8.252;2024-03-22T03:12:43;59.75;;;34.65;;
58242;SDS011;50118;53.232;8.252;2024-03-22T03:15:08;60.92;;;35.67;;
58242;SDS011;50118;53.232;8.252;2024-03-22T03:17:34;62.25;;;34.28;;
58242;SDS011;50118;53.232;8.252;2024-03-22T03:19:59;61.50;;;34.60;;
58242;SDS011;50118;53.232;8.252;2024-03-22T03:22:25;61.22;;;34.90;;
58242;SDS011;50118;53.232;8.252;2024-03-22T03:24:50;57.95;;;34.58;;
58242;SDS011;50118;53.232;8.252;2024-03-22T03:27:16;62.40;;;36.35;;
58242;SDS011;50118;53.232;8.252;2024-03-22T03:29:41;64.05;;;37.10;;
58242;SDS011;50118;53.232;8.252;2024-03-22T03:32:07;61.95;;;35.90;;
58242;SDS011;50118;53.232;8.252;2024-03-22T03:34:35;63.10;;;36.25;;
58242;SDS011;50118;53.232;8.252;2024-03-22T03:37:00;63.22;;;37.63;;
58242;SDS011;50118;53.232;8.252;2024-03-22T03:39:26;64.00;;;35.72;;
58242;SDS011;50118;53.232;8.252;2024-03-22T03:41:54;64.72;;;36.83;;
58242;SDS011;50118;53.232;8.252;2024-03-22T03:44:19;63.22;;;36.55;;
58242;SDS011;50118;53.232;8.252;2024-03-22T03:46:45;60.67;;;34.85;;
58242;SDS011;50118;53.232;8.252;2024-03-22T03:49:10;63.00;;;35.78;;
58242;SDS011;50118;53.232;8.252;2024-03-22T03:51:36;64.40;;;36.35;;
58242;SDS011;50118;53.232;8.252;2024-03-22T03:54:01;61.00;;;34.83;;
58242;SDS011;50118;53.232;8.252;2024-03-22T03:56:26;65.57;;;36.33;;
58242;SDS011;50118;53.232;8.252;2024-03-22T03:58:52;62.90;;;37.17;;
58242;SDS011;50118;53.232;8.252;2024-03-22T04:01:18;62.65;;;36.08;;
58242;SDS011;50118;53.232;8.252;2024-03-22T04:03:44;65.18;;;36.83;;
58242;SDS011;50118;53.232;8.252;2024-03-22T04:06:09;62.95;;;35.97;;
58242;SDS011;50118;53.232;8.252;2024-03-22T04:08:35;66.07;;;35.17;;
58242;SDS011;50118;53.232;8.252;2024-03-22T04:11:00;64.72;;;36.05;;
58242;SDS011;50118;53.232;8.252;2024-03-22T04:13:26;65.47;;;37.03;;
58242;SDS011;50118;53.232;8.252;2024-03-22T04:15:52;65.40;;;35.38;;
58242;SDS011;50118;53.232;8.252;2024-03-22T04:18:18;63.92;;;36.33;;
58242;SDS011;50118;53.232;8.252;2024-03-22T04:20:54;66.65;;;35.63;;
58242;SDS011;50118;53.232;8.252;2024-03-22T04:23:23;67.90;;;36.75;;
58242;SDS011;50118;53.232;8.252;2024-03-22T04:25:55;67.35;;;38.13;;
58242;SDS011;50118;53.232;8.252;2024-03-22T04:28:28;72.13;;;38.65;;
58242;SDS011;50118;53.232;8.252;2024-03-22T04:30:55;68.57;;;38.42;;
58242;SDS011;50118;53.232;8.252;2024-03-22T04:33:27;66.32;;;36.33;;
58242;SDS011;50118;53.232;8.252;2024-03-22T04:35:54;70.32;;;37.60;;
58242;SDS011;50118;53.232;8.252;2024-03-22T04:38:20;68.82;;;37.05;;
58242;SDS011;50118;53.232;8.252;2024-03-22T04:40:45;68.60;;;37.33;;
58242;SDS011;50118;53.232;8.252;2024-03-22T04:43:11;69.22;;;37.75;;
58242;SDS011;50118;53.232;8.252;2024-03-22T04:45:36;70.85;;;37.92;;
58242;SDS011;50118;53.232;8.252;2024-03-22T04:48:03;69.05;;;37.42;;
58242;SDS011;50118;53.232;8.252;2024-03-22T04:50:29;61.40;;;36.13;;
58242;SDS011;50118;53.232;8.252;2024-03-22T04:52:55;70.88;;;38.20;;
58242;SDS011;50118;53.232;8.252;2024-03-22T04:55:21;67.53;;;36.75;;
58242;SDS011;50118;53.232;8.252;2024-03-22T04:57:46;70.22;;;37.40;;
58242;SDS011;50118;53.232;8.252;2024-03-22T05:00:12;69.60;;;37.20;;
58242;SDS011;50118;53.232;8.252;2024-03-22T05:02:38;70.22;;;38.65;;
58242;SDS011;50118;53.232;8.252;2024-03-22T05:05:03;65.65;;;36.72;;
58242;SDS011;50118;53.232;8.252;2024-03-22T05:07:29;67.30;;;37.72;;
58242;SDS011;50118;53.232;8.252;2024-03-22T05:09:54;72.22;;;38.50;;
58242;SDS011;50118;53.232;8.252;2024-03-22T05:12:20;67.97;;;37.97;;
58242;SDS011;50118;53.232;8.252;2024-03-22T05:14:45;71.78;;;38.53;;
58242;SDS011;50118;53.232;8.252;2024-03-22T05:17:10;72.47;;;39.55;;
58242;SDS011;50118;53.232;8.252;2024-03-22T05:19:36;67.45;;;38.58;;
58242;SDS011;50118;53.232;8.252;2024-03-22T05:22:01;69.00;;;36.90;;
58242;SDS011;50118;53.232;8.252;2024-03-22T05:24:27;70.00;;;38.88;;
58242;SDS011;50118;53.232;8.252;2024-03-22T05:26:53;71.28;;;38.25;;
58242;SDS011;50118;53.232;8.252;2024-03-22T05:29:18;72.93;;;38.55;;
58242;SDS011;50118;53.232;8.252;2024-03-22T05:31:47;69.32;;;37.45;;
58242;SDS011;50118;53.232;8.252;2024-03-22T05:34:14;69.00;;;38.72;;
58242;SDS011;50118;53.232;8.252;2024-03-22T05:36:40;70.22;;;37.33;;
58242;SDS011;50118;53.232;8.252;2024-03-22T05:39:06;70.78;;;38.80;;
58242;SDS011;50118;53.232;8.252;2024-03-22T05:41:31;72.50;;;38.10;;
58242;SDS011;50118;53.232;8.252;2024-03-22T05:43:56;69.43;;;37.30;;
58242;SDS011;50118;53.232;8.252;2024-03-22T05:46:22;68.90;;;37.65;;
58242;SDS011;50118;53.232;8.252;2024-03-22T05:48:47;67.00;;;37.60;;
58242;SDS011;50118;53.232;8.252;2024-03-22T05:51:15;66.03;;;37.35;;
58242;SDS011;50118;53.232;8.252;2024-03-22T05:53:41;71.20;;;37.95;;
58242;SDS011;50118;53.232;8.252;2024-03-22T05:56:07;66.18;;;37.45;;
58242;SDS011;50118;53.232;8.252;2024-03-22T05:58:32;69.60;;;38.45;;
58242;SDS011;50118;53.232;8.252;2024-03-22T06:00:58;71.03;;;38.17;;
58242;SDS011;50118;53.232;8.252;2024-03-22T06:03:23;71.28;;;38.38;;
58242;SDS011;50118;53.232;8.252;2024-03-22T06:05:49;70.88;;;38.92;;
58242;SDS011;50118;53.232;8.252;2024-03-22T06:08:14;69.38;;;37.38;;
58242;SDS011;50118;53.232;8.252;2024-03-22T06:10:45;66.28;;;36.83;;
58242;SDS011;50118;53.232;8.252;2024-03-22T06:13:10;71.25;;;38.08;;
58242;SDS011;50118;53.232;8.252;2024-03-22T06:15:36;69.80;;;39.25;;
58242;SDS011;50118;53.232;8.252;2024-03-22T06:18:01;74.88;;;39.25;;
58242;SDS011;50118;53.232;8.252;2024-03-22T06:20:27;74.65;;;39.78;;
58242;SDS011;50118;53.232;8.252;2024-03-22T06:22:52;73.35;;;40.17;;
58242;SDS011;50118;53.232;8.252;2024-03-22T06:25:17;77.78;;;40.90;;
58242;SDS011;50118;53.232;8.252;2024-03-22T06:27:43;83.00;;;41.60;;
58242;SDS011;50118;53.232;8.252;2024-03-22T06:30:08;77.82;;;41.85;;
58242;SDS011;50118;53.232;8.252;2024-03-22T06:32:34;76.07;;;40.72;;
58242;SDS011;50118;53.232;8.252;2024-03-22T06:34:59;88.63;;;43.15;;
58242;SDS011;50118;53.232;8.252;2024-03-22T06:37:25;83.40;;;41.72;;
58242;SDS011;50118;53.232;8.252;2024-03-22T06:39:50;84.32;;;43.30;;
58242;SDS011;50118;53.232;8.252;2024-03-22T06:42:15;82.70;;;43.05;;
58242;SDS011;50118;53.232;8.252;2024-03-22T06:44:41;83.45;;;42.65;;
58242;SDS011;50118;53.232;8.252;2024-03-22T06:47:06;80.95;;;41.05;;
58242;SDS011;50118;53.232;8.252;2024-03-22T06:49:32;80.28;;;42.35;;
58242;SDS011;50118;53.232;8.252;2024-03-22T06:51:57;79.05;;;40.63;;
58242;SDS011;50118;53.232;8.252;2024-03-22T06:54:23;76.53;;;41.58;;
58242;SDS011;50118;53.232;8.252;2024-03-22T06:56:48;78.68;;;41.72;;
58242;SDS011;50118;53.232;8.252;2024-03-22T06:59:14;85.32;;;42.03;;
58242;SDS011;50118;53.232;8.252;2024-03-22T07:01:39;77.85;;;41.20;;
58242;SDS011;50118;53.232;8.252;2024-03-22T07:04:05;86.30;;;43.92;;
58242;SDS011;50118;53.232;8.252;2024-03-22T07:06:30;88.20;;;44.75;;
58242;SDS011;50118;53.232;8.252;2024-03-22T07:08:55;91.57;;;44.75;;
58242;SDS011;50118;53.232;8.252;2024-03-22T07:11:21;91.90;;;44.25;;
58242;SDS011;50118;53.232;8.252;2024-03-22T07:13:47;89.75;;;43.15;;
58242;SDS011;50118;53.232;8.252;2024-03-22T07:16:12;85.93;;;43.22;;
58242;SDS011;50118;53.232;8.252;2024-03-22T07:18:38;85.28;;;42.70;;
58242;SDS011;50118;53.232;8.252;2024-03-22T07:21:03;88.45;;;44.05;;
58242;SDS011;50118;53.232;8.252;2024-03-22T07:23:29;85.97;;;43.38;;
58242;SDS011;50118;53.232;8.252;2024-03-22T07:25:55;87.50;;;42.35;;
58242;SDS011;50118;53.232;8.252;2024-03-22T07:28:20;81.15;;;42.05;;
58242;SDS011;50118;53.232;8.252;2024-03-22T07:30:46;90.00;;;43.78;;
58242;SDS011;50118;53.232;8.252;2024-03-22T07:33:12;84.40;;;42.72;;
58242;SDS011;50118;53.232;8.252;2024-03-22T07:35:38;91.90;;;44.55;;
58242;SDS011;50118;53.232;8.252;2024-03-22T07:38:04;89.13;;;42.70;;
58242;SDS011;50118;53.232;8.252;2024-03-22T07:40:30;76.15;;;40.20;;
58242;SDS011;50118;53.232;8.252;2024-03-22T07:42:55;83.13;;;42.08;;
58242;SDS011;50118;53.232;8.252;2024-03-22T07:45:22;87.18;;;42.13;;
58242;SDS011;50118;53.232;8.252;2024-03-22T07:47:48;83.93;;;42.25;;
58242;SDS011;50118;53.232;8.252;2024-03-22T07:50:13;83.57;;;41.17;;
58242;SDS011;50118;53.232;8.252;2024-03-22T07:52:39;82.25;;;40.20;;
58242;SDS011;50118;53.232;8.252;2024-03-22T07:55:04;88.53;;;43.25;;
58242;SDS011;50118;53.232;8.252;2024-03-22T07:57:30;82.78;;;41.38;;
58242;SDS011;50118;53.232;8.252;2024-03-22T07:59:56;86.93;;;43.08;;
58242;SDS011;50118;53.232;8.252;2024-03-22T08:02:22;81.20;;;40.75;;
58242;SDS011;50118;53.232;8.252;2024-03-22T08:04:47;79.50;;;39.83;;
58242;SDS011;50118;53.232;8.252;2024-03-22T08:07:13;81.30;;;42.03;;
58242;SDS011;50118;53.232;8.252;2024-03-22T08:09:39;76.15;;;39.55;;
58242;SDS011;50118;53.232;8.252;2024-03-22T08:12:05;75.13;;;38.97;;
58242;SDS011;50118;53.232;8.252;2024-03-22T08:14:31;71.30;;;38.55;;
58242;SDS011;50118;53.232;8.252;2024-03-22T08:16:56;75.05;;;38.88;;
58242;SDS011;50118;53.232;8.252;2024-03-22T08:19:22;72.88;;;39.17;;
58242;SDS011;50118;53.232;8.252;2024-03-22T08:21:47;77.97;;;38.08;;
58242;SDS011;50118;53.232;8.252;2024-03-22T08:24:14;74.97;;;37.53;;
58242;SDS011;50118;53.232;8.252;2024-03-22T08:26:40;73.57;;;36.22;;
58242;SDS011;50118;53.232;8.252;2024-03-22T08:29:10;64.93;;;34.08;;
58242;SDS011;50118;53.232;8.252;2024-03-22T08:31:36;61.58;;;34.30;;
58242;SDS011;50118;53.232;8.252;2024-03-22T08:34:01;56.03;;;31.45;;
58242;SDS011;50118;53.232;8.252;2024-03-22T08:36:28;55.90;;;33.25;;
58242;SDS011;50118;53.232;8.252;2024-03-22T08:38:54;55.50;;;30.98;;
58242;SDS011;50118;53.232;8.252;2024-03-22T08:41:19;52.63;;;29.40;;
58242;SDS011;50118;53.232;8.252;2024-03-22T08:43:45;53.13;;;29.98;;
58242;SDS011;50118;53.232;8.252;2024-03-22T08:46:10;51.80;;;29.63;;
58242;SDS011;50118;53.232;8.252;2024-03-22T08:48:36;48.85;;;28.05;;
58242;SDS011;50118;53.232;8.252;2024-03-22T08:51:01;48.03;;;27.70;;
58242;SDS011;50118;53.232;8.252;2024-03-22T08:53:26;48.20;;;28.15;;
58242;SDS011;50118;53.232;8.252;2024-03-22T08:55:52;47.17;;;27.75;;
58242;SDS011;50118;53.232;8.252;2024-03-22T08:58:17;46.58;;;28.48;;
58242;SDS011;50118;53.232;8.252;2024-03-22T09:00:43;48.50;;;27.48;;
58242;SDS011;50118;53.232;8.252;2024-03-22T09:03:09;49.80;;;28.48;;
58242;SDS011;50118;53.232;8.252;2024-03-22T09:05:35;52.85;;;28.25;;
58242;SDS011;50118;53.232;8.252;2024-03-22T09:08:01;52.10;;;28.00;;
58242;SDS011;50118;53.232;8.252;2024-03-22T09:10:28;50.70;;;28.38;;
58242;SDS011;50118;53.232;8.252;2024-03-22T09:12:54;54.67;;;29.90;;
58242;SDS011;50118;53.232;8.252;2024-03-22T09:15:20;55.97;;;28.92;;
58242;SDS011;50118;53.232;8.252;2024-03-22T09:17:46;55.88;;;28.40;;
58242;SDS011;50118;53.232;8.252;2024-03-22T09:20:12;56.47;;;29.15;;
58242;SDS011;50118;53.232;8.252;2024-03-22T09:22:37;51.75;;;27.83;;
58242;SDS011;50118;53.232;8.252;2024-03-22T09:25:04;55.80;;;29.55;;
58242;SDS011;50118;53.232;8.252;2024-03-22T09:27:30;51.83;;;27.75;;
58242;SDS011;50118;53.232;8.252;2024-03-22T09:29:57;53.05;;;27.13;;
58242;SDS011;50118;53.232;8.252;2024-03-22T09:32:23;52.33;;;27.77;;
58242;SDS011;50118;53.232;8.252;2024-03-22T09:34:48;50.95;;;28.05;;
58242;SDS011;50118;53.232;8.252;2024-03-22T09:37:15;46.80;;;26.20;;
58242;SDS011;50118;53.232;8.252;2024-03-22T09:39:40;44.85;;;25.08;;
58242;SDS011;50118;53.232;8.252;2024-03-22T09:42:06;44.53;;;24.90;;
58242;SDS011;50118;53.232;8.252;2024-03-22T09:44:32;48.42;;;24.60;;
58242;SDS011;50118;53.232;8.252;2024-03-22T09:46:58;42.17;;;24.27;;
58242;SDS011;50118;53.232;8.252;2024-03-22T09:49:24;46.20;;;23.75;;
58242;SDS011;50118;53.232;8.252;2024-03-22T09:51:51;40.95;;;23.50;;
58242;SDS011;50118;53.232;8.252;2024-03-22T09:54:17;38.97;;;22.90;;
58242;SDS011;50118;53.232;8.252;2024-03-22T09:56:42;40.33;;;22.52;;
58242;SDS011;50118;53.232;8.252;2024-03-22T09:59:09;40.70;;;22.38;;
58242;SDS011;50118;53.232;8.252;2024-03-22T10:01:38;42.60;;;22.13;;
58242;SDS011;50118;53.232;8.252;2024-03-22T10:04:05;37.63;;;21.40;;
58242;SDS011;50118;53.232;8.252;2024-03-22T10:06:30;36.70;;;22.10;;
58242;SDS011;50118;53.232;8.252;2024-03-22T10:08:59;38.70;;;21.75;;
58242;SDS011;50118;53.232;8.252;2024-03-22T10:11:26;35.67;;;20.60;;
58242;SDS011;50118;53.232;8.252;2024-03-22T10:13:52;35.67;;;21.05;;
58242;SDS011;50118;53.232;8.252;2024-03-22T10:16:17;33.60;;;20.65;;
58242;SDS011;50118;53.232;8.252;2024-03-22T10:18:43;34.03;;;19.23;;
58242;SDS011;50118;53.232;8.252;2024-03-22T10:21:09;33.30;;;19.75;;
58242;SDS011;50118;53.232;8.252;2024-03-22T10:23:34;34.28;;;19.60;;
58242;SDS011;50118;53.232;8.252;2024-03-22T10:26:00;36.58;;;20.10;;
58242;SDS011;50118;53.232;8.252;2024-03-22T10:28:26;34.10;;;19.77;;
58242;SDS011;50118;53.232;8.252;2024-03-22T10:30:52;32.50;;;18.50;;
58242;SDS011;50118;53.232;8.252;2024-03-22T10:33:18;33.50;;;19.13;;
58242;SDS011;50118;53.232;8.252;2024-03-22T10:35:45;30.10;;;17.40;;
58242;SDS011;50118;53.232;8.252;2024-03-22T10:38:12;29.75;;;17.65;;
58242;SDS011;50118;53.232;8.252;2024-03-22T10:40:38;30.60;;;17.70;;
58242;SDS011;50118;53.232;8.252;2024-03-22T10:43:06;31.42;;;18.48;;
58242;SDS011;50118;53.232;8.252;2024-03-22T10:45:32;30.45;;;16.90;;
58242;SDS011;50118;53.232;8.252;2024-03-22T10:47:58;29.70;;;16.77;;
58242;SDS011;50118;53.232;8.252;2024-03-22T10:50:27;26.05;;;15.93;;
58242;SDS011;50118;53.232;8.252;2024-03-22T10:52:56;25.83;;;14.95;;
58242;SDS011;50118;53.232;8.252;2024-03-22T10:55:33;26.33;;;15.55;;
58242;SDS011;50118;53.232;8.252;2024-03-22T10:58:01;23.85;;;14.60;;
58242;SDS011;50118;53.232;8.252;2024-03-22T11:00:31;23.58;;;14.98;;
58242;SDS011;50118;53.232;8.252;2024-03-22T11:02:57;24.02;;;15.32;;
58242;SDS011;50118;53.232;8.252;2024-03-22T11:05:23;23.25;;;15.18;;
58242;SDS011;50118;53.232;8.252;2024-03-22T11:10:33;19.65;;;12.93;;
58242;SDS011;50118;53.232;8.252;2024-03-22T11:13:02;19.45;;;12.35;;
58242;SDS011;50118;53.232;8.252;2024-03-22T11:15:32;21.27;;;12.55;;
58242;SDS011;50118;53.232;8.252;2024-03-22T11:17:58;18.13;;;11.02;;
58242;SDS011;50118;53.232;8.252;2024-03-22T11:20:25;14.98;;;10.60;;
58242;SDS011;50118;53.232;8.252;2024-03-22T11:22:52;16.00;;;11.20;;
58242;SDS011;50118;53.232;8.252;2024-03-22T11:25:18;16.25;;;10.32;;
58242;SDS011;50118;53.232;8.252;2024-03-22T11:27:44;16.55;;;10.35;;
58242;SDS011;50118;53.232;8.252;2024-03-22T11:30:10;13.80;;;9.77;;
58242;SDS011;50118;53.232;8.252;2024-03-22T11:32:36;13.73;;;9.80;;
58242;SDS011;50118;53.232;8.252;2024-03-22T11:35:09;13.82;;;9.38;;
58242;SDS011;50118;53.232;8.252;2024-03-22T11:37:35;13.43;;;9.13;;
58242;SDS011;50118;53.232;8.252;2024-03-22T11:40:00;12.82;;;8.82;;
58242;SDS011;50118;53.232;8.252;2024-03-22T11:42:30;11.50;;;8.38;;
58242;SDS011;50118;53.232;8.252;2024-03-22T11:44:56;12.88;;;8.23;;
58242;SDS011;50118;53.232;8.252;2024-03-22T11:47:22;13.32;;;7.93;;
58242;SDS011;50118;53.232;8.252;2024-03-22T11:49:48;10.68;;;7.60;;
58242;SDS011;50118;53.232;8.252;2024-03-22T11:52:13;11.18;;;7.68;;
58242;SDS011;50118;53.232;8.252;2024-03-22T11:54:40;10.27;;;7.50;;
58242;SDS011;50118;53.232;8.252;2024-03-22T11:57:05;9.95;;;7.20;;
58242;SDS011;50118;53.232;8.252;2024-03-22T11:59:30;9.52;;;7.05;;
58242;SDS011;50118;53.232;8.252;2024-03-22T12:01:56;9.63;;;6.70;;
58242;SDS011;50118;53.232;8.252;2024-03-22T12:04:22;8.93;;;6.22;;
58242;SDS011;50118;53.232;8.252;2024-03-22T12:06:47;8.18;;;5.75;;
58242;SDS011;50118;53.232;8.252;2024-03-22T12:09:13;8.48;;;6.03;;
58242;SDS011;50118;53.232;8.252;2024-03-22T12:11:39;7.93;;;5.82;;
58242;SDS011;50118;53.232;8.252;2024-03-22T12:14:05;6.63;;;5.25;;
58242;SDS011;50118;53.232;8.252;2024-03-22T12:16:30;6.90;;;5.25;;
58242;SDS011;50118;53.232;8.252;2024-03-22T12:18:57;6.85;;;5.22;;
58242;SDS011;50118;53.232;8.252;2024-03-22T12:21:22;6.80;;;4.82;;
58242;SDS011;50118;53.232;8.252;2024-03-22T12:23:48;6.70;;;4.88;;
58242;SDS011;50118;53.232;8.252;2024-03-22T12:26:14;7.60;;;4.45;;
58242;SDS011;50118;53.232;8.252;2024-03-22T12:28:39;6.70;;;4.28;;
58242;SDS011;50118;53.232;8.252;2024-03-22T12:31:04;5.30;;;3.85;;
58242;SDS011;50118;53.232;8.252;2024-03-22T12:33:30;6.43;;;3.65;;
58242;SDS011;50118;53.232;8.252;2024-03-22T12:35:55;4.78;;;3.28;;
58242;SDS011;50118;53.232;8.252;2024-03-22T12:38:21;4.43;;;3.33;;
58242;SDS011;50118;53.232;8.252;2024-03-22T12:40:46;4.35;;;3.03;;
58242;SDS011;50118;53.232;8.252;2024-03-22T12:43:12;4.47;;;2.80;;
58242;SDS011;50118;53.232;8.252;2024-03-22T12:45:37;4.03;;;2.88;;
58242;SDS011;50118;53.232;8.252;2024-03-22T12:48:03;3.80;;;2.80;;
58242;SDS011;50118;53.232;8.252;2024-03-22T12:50:29;3.85;;;2.70;;
58242;SDS011;50118;53.232;8.252;2024-03-22T12:52:55;3.47;;;2.50;;
58242;SDS011;50118;53.232;8.252;2024-03-22T12:55:21;3.55;;;2.55;;
58242;SDS011;50118;53.232;8.252;2024-03-22T12:57:46;3.60;;;2.50;;
58242;SDS011;50118;53.232;8.252;2024-03-22T13:00:12;3.70;;;2.58;;
58242;SDS011;50118;53.232;8.252;2024-03-22T13:02:41;3.40;;;2.40;;
58242;SDS011;50118;53.232;8.252;2024-03-22T13:05:07;3.83;;;2.38;;
58242;SDS011;50118;53.232;8.252;2024-03-22T13:07:33;3.25;;;2.50;;
58242;SDS011;50118;53.232;8.252;2024-03-22T13:09:59;3.25;;;2.33;;
58242;SDS011;50118;53.232;8.252;2024-03-22T13:12:28;2.97;;;2.08;;
58242;SDS011;50118;53.232;8.252;2024-03-22T13:14:56;2.83;;;2.10;;
58242;SDS011;50118;53.232;8.252;2024-03-22T13:17:21;3.40;;;2.20;;
58242;SDS011;50118;53.232;8.252;2024-03-22T13:19:47;10.93;;;2.42;;
58242;SDS011;50118;53.232;8.252;2024-03-22T13:22:12;3.28;;;2.05;;
58242;SDS011;50118;53.232;8.252;2024-03-22T13:24:38;3.22;;;2.17;;
58242;SDS011;50118;53.232;8.252;2024-03-22T13:27:03;4.03;;;2.28;;
58242;SDS011;50118;53.232;8.252;2024-03-22T13:29:29;2.83;;;2.10;;
58242;SDS011;50118;53.232;8.252;2024-03-22T13:31:54;2.65;;;1.95;;
58242;SDS011;50118;53.232;8.252;2024-03-22T13:34:20;3.00;;;2.10;;
58242;SDS011;50118;53.232;8.252;2024-03-22T13:36:45;2.75;;;1.60;;
58242;SDS011;50118;53.232;8.252;2024-03-22T13:39:12;2.08;;;1.50;;
58242;SDS011;50118;53.232;8.252;2024-03-22T13:41:40;1.98;;;1.42;;
58242;SDS011;50118;53.232;8.252;2024-03-22T13:44:06;2.28;;;1.63;;
58242;SDS011;50118;53.232;8.252;2024-03-22T13:46:33;2.03;;;1.30;;
58242;SDS011;50118;53.232;8.252;2024-03-22T13:49:01;1.50;;;1.20;;
58242;SDS011;50118;53.232;8.252;2024-03-22T13:51:28;2.28;;;1.30;;
58242;SDS011;50118;53.232;8.252;2024-03-22T13:53:54;2.40;;;1.60;;
58242;SDS011;50118;53.232;8.252;2024-03-22T13:56:20;2.40;;;1.60;;
58242;SDS011;50118;53.232;8.252;2024-03-22T13:58:46;1.80;;;1.40;;
58242;SDS011;50118;53.232;8.252;2024-03-22T14:01:11;1.70;;;1.48;;
58242;SDS011;50118;53.232;8.252;2024-03-22T14:03:37;2.20;;;1.70;;
58242;SDS011;50118;53.232;8.252;2024-03-22T14:06:02;2.28;;;1.70;;
58242;SDS011;50118;53.232;8.252;2024-03-22T14:08:28;3.40;;;1.83;;
58242;SDS011;50118;53.232;8.252;2024-03-22T14:10:54;2.40;;;1.50;;
58242;SDS011;50118;53.232;8.252;2024-03-22T14:13:19;8.30;;;2.38;;
58242;SDS011;50118;53.232;8.252;2024-03-22T14:15:45;8.68;;;2.53;;
58242;SDS011;50118;53.232;8.252;2024-03-22T14:18:10;6.47;;;2.60;;
58242;SDS011;50118;53.232;8.252;2024-03-22T14:20:35;10.07;;;2.67;;